地図

経路データ

SID SEASON NUMBER BASIN SUBBASIN NAME ISO_TIME NATURE LAT LON WMO_WIND WMO_PRES WMO_AGENCY TRACK_TYPE DIST2LAND LANDFALL IFLAG USA_AGENCY USA_ATCF_ID USA_LAT USA_LON USA_RECORD USA_STATUS USA_WIND USA_PRES USA_SSHS USA_R34_NE USA_R34_SE USA_R34_SW USA_R34_NW USA_R50_NE USA_R50_SE USA_R50_SW USA_R50_NW USA_R64_NE USA_R64_SE USA_R64_SW USA_R64_NW USA_POCI USA_ROCI USA_RMW USA_EYE TOKYO_LAT TOKYO_LON TOKYO_GRADE TOKYO_WIND TOKYO_PRES TOKYO_R50_DIR TOKYO_R50_LONG TOKYO_R50_SHORT TOKYO_R30_DIR TOKYO_R30_LONG TOKYO_R30_SHORT TOKYO_LAND CMA_LAT CMA_LON CMA_CAT CMA_WIND CMA_PRES HKO_LAT HKO_LON HKO_CAT HKO_WIND HKO_PRES NEWDELHI_LAT NEWDELHI_LON NEWDELHI_GRADE NEWDELHI_WIND NEWDELHI_PRES NEWDELHI_CI NEWDELHI_DP NEWDELHI_POCI REUNION_LAT REUNION_LON REUNION_TYPE REUNION_WIND REUNION_PRES REUNION_TNUM REUNION_CI REUNION_RMW REUNION_R34_NE REUNION_R34_SE REUNION_R34_SW REUNION_R34_NW REUNION_R50_NE REUNION_R50_SE REUNION_R50_SW REUNION_R50_NW REUNION_R64_NE REUNION_R64_SE REUNION_R64_SW REUNION_R64_NW BOM_LAT BOM_LON BOM_TYPE BOM_WIND BOM_PRES BOM_TNUM BOM_CI BOM_RMW BOM_R34_NE BOM_R34_SE BOM_R34_SW BOM_R34_NW BOM_R50_NE BOM_R50_SE BOM_R50_SW BOM_R50_NW BOM_R64_NE BOM_R64_SE BOM_R64_SW BOM_R64_NW BOM_ROCI BOM_POCI BOM_EYE BOM_POS_METHOD BOM_PRES_METHOD NADI_LAT NADI_LON NADI_CAT NADI_WIND NADI_PRES WELLINGTON_LAT WELLINGTON_LON WELLINGTON_WIND WELLINGTON_PRES DS824_LAT DS824_LON DS824_STAGE DS824_WIND DS824_PRES TD9636_LAT TD9636_LON TD9636_STAGE TD9636_WIND TD9636_PRES TD9635_LAT TD9635_LON TD9635_WIND TD9635_PRES TD9635_ROCI NEUMANN_LAT NEUMANN_LON NEUMANN_CLASS NEUMANN_WIND NEUMANN_PRES MLC_LAT MLC_LON MLC_CLASS MLC_WIND MLC_PRES USA_GUST BOM_GUST BOM_GUST_PER REUNION_GUST REUNION_GUST_PER USA_SEAHGT USA_SEARAD_NE USA_SEARAD_SE USA_SEARAD_SW USA_SEARAD_NW STORM_SPEED STORM_DIR
1907236N21143 1907 42 WP MM NOT_NAMED 1907-08-23 16:00:00 NR 21.2000 143.000 main 1535 1501 __________O___ -1 21.2000 143.000 7 11 308
1907236N21143 1907 42 WP MM NOT_NAMED 1907-08-23 18:00:00 NR 21.4335 142.678 main 1501 1439 __________P___ -1 21.4335 142.678 7 11 308
1907236N21143 1907 42 WP MM NOT_NAMED 1907-08-23 21:00:00 NR 21.7706 142.207 main 1439 1391 __________P___ -1 21.7706 142.207 7 11 307
1907236N21143 1907 42 WP MM NOT_NAMED 1907-08-24 00:00:00 NR 22.0754 141.775 main 1391 1355 __________P___ -1 22.0754 141.775 7 9 307
1907236N21143 1907 42 WP MM NOT_NAMED 1907-08-24 03:00:00 NR 22.3296 141.405 main 1355 1340 __________P___ -1 22.3296 141.405 7 8 307
1907236N21143 1907 42 WP MM NOT_NAMED 1907-08-24 04:00:00 NR 22.4000 141.300 main 1340 1322 __________O___ -1 22.4000 141.300 2 6 305
1907236N21143 1907 42 WP MM NOT_NAMED 1907-08-24 06:00:00 NR 22.5176 141.120 main 1322 1294 __________P___ -1 22.5176 141.120 2 5 305
1907236N21143 1907 42 WP MM NOT_NAMED 1907-08-24 09:00:00 NR 22.6501 140.914 main 1294 1280 __________P___ -1 22.6501 140.914 2 4 306
1907236N21143 1907 42 WP MM NOT_NAMED 1907-08-24 12:00:00 NR 22.7550 140.762 main 1280 1262 __________P___ -1 22.7550 140.762 2 3 310
1907236N21143 1907 42 WP MM NOT_NAMED 1907-08-24 15:00:00 NR 22.8601 140.639 main 1262 1262 __________P___ -1 22.8601 140.639 2 3 315
1907236N21143 1907 42 WP MM NOT_NAMED 1907-08-24 16:00:00 NR 22.9000 140.600 main 1262 1248 __________O___ -1 22.9000 140.600 2 3 316
1907236N21143 1907 42 WP MM NOT_NAMED 1907-08-24 18:00:00 NR 22.9842 140.510 main 1248 1234 __________P___ -1 22.9842 140.510 2 4 319
1907236N21143 1907 42 WP MM NOT_NAMED 1907-08-24 21:00:00 NR 23.1226 140.388 main 1234 1209 __________P___ -1 23.1226 140.388 2 4 324
1907236N21143 1907 42 WP MM NOT_NAMED 1907-08-25 00:00:00 NR 23.2924 140.271 main 1209 1181 __________P___ -1 23.2924 140.271 2 5 330
1907236N21143 1907 42 WP MM NOT_NAMED 1907-08-25 03:00:00 NR 23.5123 140.146 main 1181 1171 __________P___ -1 23.5123 140.146 2 5 333
1907236N21143 1907 42 WP MM NOT_NAMED 1907-08-25 04:00:00 NR 23.6000 140.100 main 1171 1146 __________O___ -1 23.6000 140.100 2 6 332
1907236N21143 1907 42 WP MM NOT_NAMED 1907-08-25 06:00:00 NR 23.7966 139.982 main 1146 1108 __________P___ -1 23.7966 139.982 2 7 333
1907236N21143 1907 42 WP MM NOT_NAMED 1907-08-25 09:00:00 NR 24.1417 139.792 main 1108 1059 __________P___ -1 24.1417 139.792 2 8 335
1907236N21143 1907 42 WP MM NOT_NAMED 1907-08-25 12:00:00 NR 24.5331 139.605 main 1059 1000 __________P___ -1 24.5331 139.605 2 9 339
1907236N21143 1907 42 WP MM NOT_NAMED 1907-08-25 15:00:00 NR 24.9552 139.444 main 1000 989 __________P___ -1 24.9552 139.444 2 9 342
1907236N21143 1907 42 WP MM NOT_NAMED 1907-08-25 16:00:00 NR 25.1000 139.400 main 989 954 __________O___ -1 25.1000 139.400 2 9 346
1907236N21143 1907 42 WP MM NOT_NAMED 1907-08-25 18:00:00 NR 25.3931 139.329 main 954 912 __________P___ -1 25.3931 139.329 2 9 351
1907236N21143 1907 42 WP MM NOT_NAMED 1907-08-25 21:00:00 NR 25.8395 139.260 main 912 857 __________P___ -1 25.8395 139.260 2 9 354
1907236N21143 1907 42 WP MM NOT_NAMED 1907-08-26 00:00:00 NR 26.2919 139.223 main 857 815 __________P___ -1 26.2919 139.223 2 9 356
1907236N21143 1907 42 WP MM NOT_NAMED 1907-08-26 03:00:00 NR 26.7478 139.204 main 815 795 __________P___ -1 26.7478 139.204 2 9 0
1907236N21143 1907 42 WP MM NOT_NAMED 1907-08-26 04:00:00 NR 26.9000 139.200 main 795 __________O___ -1 26.9000 139.200 2 9 354

デジタル台風データ・検索

IBTrACS Databaseについて

本データベースは、米国NOAAが公開する1842年以降の世界の熱帯低気圧のベストトラックデータアーカイブInternational Best Track Archive for Climate Stewardship (IBTrACS)を、ウェブで閲覧しやすい形式に変換したものです。

最終更新日:2021-11-26